Time;durP1;ratioP1;P1;durP2;ratioP2;P2;SDS_P1;SDS_P2;PMS_P1;PMS_P2;Temp;Humidity;BMP_temperature;BMP_pressure;BME280_temperature;BME280_humidity;BME280_pressure;Samples;Min_cycle;Max_cycle;Signal;HPM_P1;HPM_P2
2022/01/04 00:00:24;;;;;;;7.45;6.65;;;21.90;77.90;;;;;;6285682;27;87926;-69
2022/01/04 00:03:26;;;;;;;7.97;7.03;;;21.90;77.90;;;;;;6284644;27;89053;-68
2022/01/04 00:06:30;;;;;;;8.13;6.80;;;21.90;77.90;;;;;;6296700;27;87146;-69
2022/01/04 00:09:33;;;;;;;8.05;6.88;;;21.90;78.00;;;;;;6292394;27;89021;-68
2022/01/04 00:15:56;;;;;;;8.07;7.18;;;21.90;77.90;;;;;;6288775;27;89005;-69
2022/01/04 00:18:58;;;;;;;8.60;6.57;;;21.90;77.80;;;;;;6289731;27;89199;-68
2022/01/04 00:22:03;;;;;;;7.78;6.70;;;21.90;77.70;;;;;;6292495;27;89143;-69
2022/01/04 00:25:06;;;;;;;8.00;6.78;;;21.90;77.70;;;;;;6284294;27;89093;-69
2022/01/04 00:28:09;;;;;;;8.35;6.68;;;21.90;77.70;;;;;;6289858;27;88756;-68
2022/01/04 00:31:11;;;;;;;8.88;7.18;;;21.80;77.70;;;;;;6294815;27;89195;-68
2022/01/04 00:34:13;;;;;;;8.38;7.22;;;21.90;77.70;;;;;;6285157;27;89142;-69
2022/01/04 00:37:17;;;;;;;7.53;6.72;;;21.90;77.80;;;;;;6294819;27;88308;-68
2022/01/04 00:40:19;;;;;;;8.07;7.13;;;21.80;77.70;;;;;;6306560;27;87942;-69
2022/01/04 00:43:21;;;;;;;8.23;7.10;;;21.80;77.70;;;;;;6301073;27;89213;-69
2022/01/04 00:46:23;;;;;;;7.18;6.47;;;21.80;77.80;;;;;;6284868;27;89955;-69
2022/01/04 00:49:25;;;;;;;7.32;6.50;;;21.80;77.80;;;;;;6298576;27;89032;-69
2022/01/04 00:52:28;;;;;;;8.02;7.00;;;21.80;77.80;;;;;;6287867;27;87977;-68
2022/01/04 00:55:31;;;;;;;8.05;6.60;;;21.80;77.80;;;;;;6292023;27;89129;-69
2022/01/04 00:58:33;;;;;;;8.02;7.00;;;21.70;77.80;;;;;;6297271;27;88922;-68
2022/01/04 01:01:35;;;;;;;7.53;6.70;;;21.70;77.80;;;;;;6284083;27;89209;-68
2022/01/04 01:04:38;;;;;;;7.03;6.28;;;21.70;77.80;;;;;;6301522;27;89009;-69
2022/01/04 01:07:41;;;;;;;7.10;6.40;;;21.70;77.70;;;;;;6289665;27;88589;-68
2022/01/04 01:10:47;;;;;;;7.20;6.43;;;21.70;77.80;;;;;;6285838;27;88069;-69
2022/01/04 01:13:49;;;;;;;8.00;6.63;;;21.70;77.70;;;;;;6304665;27;89004;-69
2022/01/04 01:16:52;;;;;;;7.82;6.70;;;21.70;77.60;;;;;;6283571;27;90030;-69
2022/01/04 01:19:54;;;;;;;7.07;6.38;;;21.70;77.60;;;;;;6306770;27;88014;-68
2022/01/04 01:22:58;;;;;;;7.18;6.18;;;21.80;77.70;;;;;;6292968;27;89181;-68
2022/01/04 01:26:01;;;;;;;7.65;6.43;;;21.70;77.60;;;;;;6294258;27;88819;-69
2022/01/04 01:29:04;;;;;;;7.55;6.28;;;21.70;77.60;;;;;;6298975;27;89213;-68
2022/01/04 01:32:07;;;;;;;8.50;6.97;;;21.70;77.70;;;;;;6282818;27;89012;-69
2022/01/04 01:35:10;;;;;;;7.63;6.82;;;21.70;77.70;;;;;;6283243;27;89435;-69
2022/01/04 01:38:14;;;;;;;6.93;6.22;;;21.70;77.80;;;;;;6287383;27;88412;-69
2022/01/04 01:41:16;;;;;;;7.70;6.90;;;21.70;77.70;;;;;;6306422;27;89006;-69
2022/01/04 01:44:18;;;;;;;7.10;6.22;;;21.70;77.80;;;;;;6293472;27;89124;-69
2022/01/04 01:47:20;;;;;;;6.55;5.82;;;21.70;77.70;;;;;;6285260;27;89496;-69
2022/01/04 01:50:22;;;;;;;6.07;5.22;;;21.60;77.00;;;;;;6294391;27;89116;-68
2022/01/04 01:53:26;;;;;;;6.68;5.75;;;21.60;76.70;;;;;;6305954;27;89027;-69
2022/01/04 01:56:29;;;;;;;8.40;6.70;;;21.60;77.10;;;;;;6296728;27;89149;-68
2022/01/04 01:59:31;;;;;;;7.30;6.20;;;21.60;77.20;;;;;;6306070;27;88970;-69
2022/01/04 02:02:34;;;;;;;9.00;7.30;;;21.60;77.30;;;;;;6308160;27;89044;-68
2022/01/04 02:05:36;;;;;;;7.43;6.63;;;21.60;77.20;;;;;;6295898;27;89068;-68
2022/01/04 02:08:40;;;;;;;7.82;7.10;;;21.70;77.30;;;;;;6308931;27;88252;-68
2022/01/04 02:11:43;;;;;;;8.05;7.25;;;21.70;77.20;;;;;;6302029;27;89114;-68
2022/01/04 02:14:49;;;;;;;8.23;7.00;;;21.70;77.20;;;;;;6284131;27;89350;-68
2022/01/04 02:17:51;;;;;;;8.55;7.55;;;21.60;77.20;;;;;;6298973;27;90164;-69
2022/01/04 02:20:55;;;;;;;8.27;7.35;;;21.60;77.30;;;;;;6297667;27;89554;-69
2022/01/04 02:23:57;;;;;;;8.38;7.32;;;21.60;77.40;;;;;;6302299;27;89167;-69
2022/01/04 02:26:59;;;;;;;9.40;8.05;;;21.60;77.50;;;;;;6305901;27;89143;-68
2022/01/04 02:30:02;;;;;;;8.93;8.00;;;21.60;77.50;;;;;;6282183;27;88101;-69
2022/01/04 02:33:04;;;;;;;9.85;8.07;;;21.60;77.60;;;;;;6283499;27;88969;-68
2022/01/04 02:36:07;;;;;;;8.82;7.43;;;21.60;77.70;;;;;;6298369;27;89620;-68
2022/01/04 02:39:09;;;;;;;9.45;8.45;;;21.60;77.70;;;;;;6282643;27;88290;-69
2022/01/04 02:42:12;;;;;;;9.43;8.15;;;21.60;77.70;;;;;;6281719;27;87931;-68
2022/01/04 02:45:14;;;;;;;9.13;8.13;;;21.50;77.70;;;;;;6281505;27;90975;-68
2022/01/04 02:48:16;;;;;;;9.40;8.40;;;21.50;77.70;;;;;;6299687;27;89107;-69
2022/01/04 02:51:20;;;;;;;9.32;8.30;;;21.50;77.70;;;;;;6287439;27;89063;-68
2022/01/04 02:54:22;;;;;;;10.23;9.13;;;21.50;77.70;;;;;;6282344;27;89015;-69
2022/01/04 02:57:24;;;;;;;10.38;9.27;;;21.50;77.70;;;;;;6300641;27;89334;-68
2022/01/04 03:00:26;;;;;;;9.70;8.70;;;21.50;77.70;;;;;;6280828;27;89133;-68
2022/01/04 03:03:28;;;;;;;10.40;9.30;;;21.50;77.60;;;;;;6305266;27;88373;-67
2022/01/04 03:06:31;;;;;;;9.68;8.65;;;21.60;77.60;;;;;;6303199;27;88745;-68
2022/01/04 03:09:33;;;;;;;10.85;9.75;;;21.50;77.50;;;;;;6305144;27;87494;-68
2022/01/04 03:12:35;;;;;;;9.73;8.73;;;21.50;77.60;;;;;;6291461;27;89152;-68
2022/01/04 03:15:38;;;;;;;10.48;9.38;;;21.50;77.60;;;;;;6302519;27;87928;-69
2022/01/04 03:18:59;;;;;;;10.35;9.25;;;21.50;77.70;;;;;;6309729;27;90032;-68
2022/01/04 03:22:03;;;;;;;10.90;9.80;;;21.50;77.70;;;;;;6293166;27;89378;-68
2022/01/04 03:25:06;;;;;;;10.75;9.65;;;21.50;77.70;;;;;;6292019;27;89047;-69
2022/01/04 03:28:08;;;;;;;11.45;10.25;;;21.50;77.70;;;;;;6295627;27;89483;-67
2022/01/04 03:31:11;;;;;;;10.88;9.77;;;21.50;77.80;;;;;;6284856;27;88509;-68
2022/01/04 03:34:13;;;;;;;11.27;10.07;;;21.40;77.70;;;;;;6284627;27;88938;-68
2022/01/04 03:37:17;;;;;;;10.90;9.80;;;21.50;77.80;;;;;;6289400;27;89038;-67
2022/01/04 03:40:19;;;;;;;11.27;10.07;;;21.50;77.80;;;;;;6297715;27;88275;-69
2022/01/04 03:43:22;;;;;;;11.30;10.20;;;21.40;77.70;;;;;;6285277;27;89087;-68
2022/01/04 03:46:24;;;;;;;11.45;10.25;;;21.40;77.80;;;;;;6288519;27;88944;-67
2022/01/04 03:49:26;;;;;;;11.23;10.02;;;21.40;77.70;;;;;;6293379;27;90037;-68
2022/01/04 03:52:30;;;;;;;11.27;10.13;;;21.40;77.80;;;;;;6296164;27;89326;-68
2022/01/04 03:55:32;;;;;;;11.60;10.40;;;21.40;77.70;;;;;;6306601;27;89135;-68
2022/01/04 03:58:35;;;;;;;10.70;9.60;;;21.40;77.70;;;;;;6305737;27;89498;-67
2022/01/04 04:01:37;;;;;;;11.15;10.00;;;21.40;77.70;;;;;;6290399;27;89491;-68
2022/01/04 04:04:39;;;;;;;11.52;10.32;;;21.50;77.60;;;;;;6296161;27;89132;-68
2022/01/04 04:07:43;;;;;;;11.20;10.05;;;21.50;77.60;;;;;;6281855;27;89085;-68
2022/01/04 04:10:45;;;;;;;11.30;10.15;;;21.50;77.70;;;;;;6285649;27;88379;-68
2022/01/04 04:13:47;;;;;;;11.23;9.98;;;21.40;77.60;;;;;;6293449;27;89428;-68
2022/01/04 04:16:49;;;;;;;11.02;9.93;;;21.40;77.60;;;;;;6307547;27;89091;-69
2022/01/04 04:19:51;;;;;;;11.80;10.60;;;21.40;78.60;;;;;;6308588;27;90166;-68
2022/01/04 04:22:55;;;;;;;11.95;10.75;;;21.40;77.80;;;;;;6301126;27;89084;-66
2022/01/04 04:25:57;;;;;;;11.30;10.13;;;21.40;77.70;;;;;;6292939;27;89026;-68
2022/01/04 04:28:59;;;;;;;11.30;9.93;;;21.40;77.70;;;;;;6300625;27;88917;-68
2022/01/04 04:32:01;;;;;;;11.45;10.25;;;21.40;77.60;;;;;;6298540;27;89038;-69
2022/01/04 04:35:04;;;;;;;11.63;10.15;;;21.40;77.50;;;;;;6300143;27;89097;-68
2022/01/04 04:38:07;;;;;;;11.00;9.90;;;21.40;77.50;;;;;;6283057;27;89321;-68
2022/01/04 04:41:09;;;;;;;10.82;9.73;;;21.40;77.40;;;;;;6286667;27;88304;-68
2022/01/04 04:44:11;;;;;;;11.38;10.27;;;21.40;77.40;;;;;;6295142;27;89153;-68
2022/01/04 04:47:13;;;;;;;11.05;9.90;;;21.40;77.40;;;;;;6306728;27;88791;-68
2022/01/04 04:50:15;;;;;;;10.85;9.68;;;21.40;77.40;;;;;;6298310;27;90013;-68
2022/01/04 04:53:19;;;;;;;11.50;10.10;;;21.40;77.40;;;;;;6292983;27;89037;-67
2022/01/04 04:56:21;;;;;;;10.75;9.70;;;21.40;77.40;;;;;;6305389;27;89222;-68
2022/01/04 04:59:23;;;;;;;10.98;9.88;;;21.50;77.40;;;;;;6295262;27;89055;-68
2022/01/04 05:02:25;;;;;;;11.15;10.05;;;21.50;77.40;;;;;;6283837;27;88971;-69
2022/01/04 05:05:27;;;;;;;11.10;10.00;;;21.50;77.30;;;;;;6281561;27;89322;-68
2022/01/04 05:08:30;;;;;;;10.88;9.77;;;21.50;77.30;;;;;;6290799;27;88091;-69
2022/01/04 05:11:33;;;;;;;10.88;9.77;;;21.50;77.20;;;;;;6287528;27;88681;-68
2022/01/04 05:14:36;;;;;;;10.45;9.43;;;21.50;77.20;;;;;;6306399;27;88981;-68
2022/01/04 05:17:38;;;;;;;10.57;9.48;;;21.50;77.20;;;;;;6307176;27;88941;-68
2022/01/04 05:20:59;;;;;;;10.65;9.55;;;21.50;77.10;;;;;;6295779;27;90336;-68
2022/01/04 05:24:02;;;;;;;10.55;9.55;;;21.60;77.10;;;;;;6294248;27;87920;-68
2022/01/04 05:27:05;;;;;;;10.35;9.35;;;21.60;77.10;;;;;;6304390;27;89376;-67
2022/01/04 05:30:09;;;;;;;9.77;8.77;;;21.60;77.10;;;;;;6307392;27;89220;-68
2022/01/04 05:33:11;;;;;;;10.75;9.65;;;21.60;77.10;;;;;;6283621;27;89747;-68
2022/01/04 05:36:13;;;;;;;10.55;9.45;;;21.60;77.10;;;;;;6289778;27;88454;-68
2022/01/04 05:39:16;;;;;;;9.90;8.90;;;21.50;77.00;;;;;;6294899;27;89034;-68
2022/01/04 05:42:18;;;;;;;10.30;9.30;;;21.50;77.10;;;;;;6291885;27;88602;-67
2022/01/04 05:45:20;;;;;;;9.82;8.82;;;21.50;77.10;;;;;;6287414;27;88807;-68
2022/01/04 05:48:22;;;;;;;10.40;9.30;;;21.50;77.10;;;;;;6290303;27;89114;-68
2022/01/04 05:51:24;;;;;;;9.43;8.52;;;21.50;77.20;;;;;;6282053;27;90052;-68
2022/01/04 05:54:28;;;;;;;10.10;9.10;;;21.50;77.10;;;;;;6283227;27;89015;-68
2022/01/04 05:57:30;;;;;;;10.05;9.05;;;21.50;77.10;;;;;;6304253;27;89210;-68
2022/01/04 06:00:32;;;;;;;10.52;9.43;;;21.50;77.10;;;;;;6285153;27;89107;-68
2022/01/04 06:03:34;;;;;;;9.52;8.63;;;21.50;77.10;;;;;;6281937;27;89299;-68
2022/01/04 06:06:38;;;;;;;9.57;8.60;;;21.60;77.20;;;;;;6296122;27;87949;-68
2022/01/04 06:09:44;;;;;;;10.13;9.05;;;21.60;77.10;;;;;;6281043;27;88906;-68
2022/01/04 06:16:06;;;;;;;9.38;8.48;;;21.60;77.10;;;;;;6294317;27;87216;-69
2022/01/04 06:19:08;;;;;;;9.10;8.30;;;21.50;77.00;;;;;;6299215;27;89124;-69
2022/01/04 06:22:10;;;;;;;9.88;8.80;;;21.60;77.10;;;;;;6305485;27;91115;-68
2022/01/04 06:25:16;;;;;;;8.98;8.07;;;21.60;77.10;;;;;;6294243;27;88321;-69
2022/01/04 06:28:18;;;;;;;9.07;8.10;;;21.60;77.10;;;;;;6299607;27;89189;-68
2022/01/04 06:31:20;;;;;;;9.35;8.45;;;21.50;77.00;;;;;;6305852;27;89249;-69
2022/01/04 06:34:22;;;;;;;8.15;7.35;;;21.60;77.10;;;;;;6295141;27;88121;-67
2022/01/04 06:37:24;;;;;;;9.20;8.23;;;21.60;77.00;;;;;;6301207;27;89257;-68
2022/01/04 06:40:28;;;;;;;8.43;7.60;;;21.60;76.90;;;;;;6285805;27;89080;-68
2022/01/04 06:43:30;;;;;;;8.80;7.90;;;21.60;76.90;;;;;;6298755;27;88409;-67
2022/01/04 06:46:32;;;;;;;8.25;7.40;;;21.70;76.80;;;;;;6309912;27;89117;-69
2022/01/04 06:49:35;;;;;;;8.82;7.93;;;21.70;76.80;;;;;;6309599;27;89183;-68
2022/01/04 06:52:37;;;;;;;8.25;7.45;;;21.70;76.70;;;;;;6298193;27;93391;-69
2022/01/04 06:55:40;;;;;;;8.27;7.47;;;21.70;76.60;;;;;;6311136;27;89138;-69
2022/01/04 06:58:42;;;;;;;8.55;7.50;;;21.70;76.60;;;;;;6287320;27;89360;-68
2022/01/04 07:01:45;;;;;;;8.20;7.40;;;21.80;76.70;;;;;;6293075;27;89349;-68
2022/01/04 07:04:47;;;;;;;7.80;7.00;;;21.80;76.60;;;;;;6302837;27;89373;-68
2022/01/04 07:07:49;;;;;;;8.15;7.35;;;21.70;76.60;;;;;;6297313;27;88969;-69
2022/01/04 07:10:53;;;;;;;7.80;7.05;;;21.80;76.60;;;;;;6283913;27;89296;-68
2022/01/04 07:13:55;;;;;;;7.90;7.10;;;21.80;76.60;;;;;;6285678;27;88716;-68
2022/01/04 07:16:57;;;;;;;7.50;6.80;;;21.80;76.60;;;;;;6284786;27;89032;-68
2022/01/04 07:19:59;;;;;;;7.43;6.72;;;21.80;76.60;;;;;;6310757;27;89046;-68
2022/01/04 07:23:01;;;;;;;7.60;6.90;;;21.80;76.50;;;;;;6293744;27;90034;-68
2022/01/04 07:26:04;;;;;;;7.38;6.68;;;21.80;76.50;;;;;;6291899;27;89627;-68
2022/01/04 07:29:06;;;;;;;7.80;6.93;;;21.80;76.40;;;;;;6309164;27;88275;-67
2022/01/04 07:32:08;;;;;;;7.05;6.35;;;21.80;76.40;;;;;;6292036;27;89414;-68
2022/01/04 07:35:10;;;;;;;7.68;6.88;;;21.90;76.50;;;;;;6288873;27;89693;-68
2022/01/04 07:38:13;;;;;;;7.28;6.50;;;21.90;76.40;;;;;;6307320;27;88782;-68
2022/01/04 07:41:16;;;;;;;7.30;6.60;;;21.90;76.40;;;;;;6297772;27;88804;-68
2022/01/04 07:44:18;;;;;;;8.02;7.22;;;21.90;76.40;;;;;;6293750;27;88365;-66
2022/01/04 07:47:20;;;;;;;6.68;5.97;;;21.90;76.30;;;;;;6297866;27;89125;-67
2022/01/04 07:50:22;;;;;;;6.97;6.28;;;22.00;76.40;;;;;;6306714;27;89056;-67
2022/01/04 07:53:25;;;;;;;6.85;6.25;;;22.00;76.60;;;;;;6303305;27;90084;-67
2022/01/04 07:56:28;;;;;;;7.00;6.30;;;22.00;76.60;;;;;;6294926;27;89432;-66
2022/01/04 07:59:32;;;;;;;6.97;6.28;;;22.00;76.60;;;;;;6292097;27;89070;-67
2022/01/04 08:02:34;;;;;;;6.63;5.93;;;22.00;76.60;;;;;;6296440;27;89064;-66
2022/01/04 08:05:36;;;;;;;6.80;6.10;;;22.00;76.60;;;;;;6301792;27;88854;-67
2022/01/04 08:08:38;;;;;;;6.35;5.75;;;22.10;76.70;;;;;;6293109;27;89236;-67
2022/01/04 08:11:41;;;;;;;6.50;5.90;;;22.20;76.70;;;;;;6293119;27;89065;-67
2022/01/04 08:14:44;;;;;;;6.32;5.72;;;22.10;76.60;;;;;;6306175;27;88429;-66
2022/01/04 08:17:47;;;;;;;6.35;5.75;;;22.10;76.60;;;;;;6299907;27;89159;-70
2022/01/04 08:20:53;;;;;;;6.45;5.85;;;22.20;76.70;;;;;;6291593;27;88997;-67
2022/01/04 08:23:56;;;;;;;6.20;5.60;;;22.10;76.70;;;;;;6296691;27;87974;-67
2022/01/04 08:27:00;;;;;;;6.13;5.53;;;22.20;76.70;;;;;;6298899;27;88005;-66
2022/01/04 08:30:02;;;;;;;6.57;5.88;;;22.20;76.70;;;;;;6301011;27;88384;-66
2022/01/04 08:33:04;;;;;;;5.35;4.85;;;22.20;76.50;;;;;;6283727;27;89469;-66
2022/01/04 08:36:07;;;;;;;5.75;5.20;;;22.20;76.40;;;;;;6286352;27;89119;-66
2022/01/04 08:39:14;;;;;;;5.53;5.03;;;22.20;76.00;;;;;;6296102;27;89125;-66
2022/01/04 08:42:20;;;;;;;5.80;5.20;;;22.30;76.00;;;;;;6299180;27;89247;-66
2022/01/04 08:45:24;;;;;;;6.10;5.50;;;22.20;76.50;;;;;;6308925;27;87179;-66
2022/01/04 08:48:26;;;;;;;5.93;5.30;;;22.20;76.70;;;;;;6287437;27;89079;-66
2022/01/04 08:51:28;;;;;;;6.10;4.50;;;22.30;76.70;;;;;;6294684;27;89577;-66
2022/01/04 08:54:30;;;;;;;4.80;4.30;;;22.20;76.10;;;;;;6296881;27;90385;-66
2022/01/04 08:57:34;;;;;;;5.88;4.45;;;22.20;74.90;;;;;;6289533;27;89218;-67
2022/01/04 09:00:36;;;;;;;5.78;4.68;;;22.30;74.70;;;;;;6304302;27;89319;-66
2022/01/04 09:03:38;;;;;;;4.97;4.47;;;22.20;75.40;;;;;;6298831;27;88962;-66
2022/01/04 09:06:41;;;;;;;5.20;4.70;;;22.20;75.60;;;;;;6304020;27;87981;-66
2022/01/04 09:09:43;;;;;;;4.95;4.45;;;22.30;75.70;;;;;;6307363;27;89451;-66
2022/01/04 09:12:55;;;;;;;4.78;4.28;;;22.20;75.70;;;;;;6294287;27;89151;-66
2022/01/04 09:19:13;;;;;;;4.68;4.22;;;22.20;75.70;;;;;;6288743;27;89812;-66
2022/01/04 09:22:15;;;;;;;5.45;4.25;;;22.30;75.80;;;;;;6293572;27;89109;-66
2022/01/04 09:25:18;;;;;;;5.07;4.30;;;22.30;75.80;;;;;;6305355;27;89955;-66
2022/01/04 09:28:24;;;;;;;5.63;4.25;;;22.30;75.80;;;;;;6307802;27;89284;-66
2022/01/04 09:31:28;;;;;;;4.60;4.00;;;22.30;75.80;;;;;;6281451;27;87896;-67
2022/01/04 09:34:30;;;;;;;5.05;3.97;;;22.30;75.70;;;;;;6292216;27;89064;-66
2022/01/04 09:37:32;;;;;;;4.93;4.13;;;22.30;75.70;;;;;;6308680;27;89424;-66
2022/01/04 09:40:36;;;;;;;4.68;4.10;;;22.30;75.70;;;;;;6305296;27;89325;-66
2022/01/04 09:43:40;;;;;;;4.40;3.80;;;22.30;75.80;;;;;;6301904;27;89140;-66
2022/01/04 09:46:43;;;;;;;4.68;3.83;;;22.30;75.80;;;;;;6287610;27;88314;-66
2022/01/04 09:49:45;;;;;;;4.35;3.95;;;22.30;75.90;;;;;;6302824;27;88981;-66
2022/01/04 09:52:49;;;;;;;4.88;4.18;;;22.30;75.90;;;;;;6296668;27;89093;-66
2022/01/04 09:55:53;;;;;;;4.38;3.88;;;22.30;75.90;;;;;;6282179;27;89997;-66
2022/01/04 09:58:57;;;;;;;4.18;3.78;;;22.30;75.90;;;;;;6288149;27;89099;-66
2022/01/04 10:02:12;;;;;;;4.45;3.85;;;22.30;75.90;;;;;;6282438;27;88996;-66
2022/01/04 10:05:34;;;;;;;4.40;4.00;;;22.30;75.90;;;;;;6281739;27;89085;-67
2022/01/04 10:08:50;;;;;;;4.00;3.60;;;22.30;75.90;;;;;;6281131;27;89130;-66
2022/01/04 10:11:53;;;;;;;4.68;3.95;;;22.30;75.90;;;;;;6302556;27;89106;-66
2022/01/04 10:14:56;;;;;;;4.75;3.60;;;22.30;75.90;;;;;;6308113;27;88015;-66
2022/01/04 10:18:02;;;;;;;4.88;3.70;;;22.40;75.90;;;;;;6293066;27;88341;-66
2022/01/04 10:21:14;;;;;;;4.22;3.63;;;22.30;75.90;;;;;;6303286;27;89043;-66
2022/01/04 10:24:19;;;;;;;4.85;3.80;;;22.30;75.90;;;;;;6298912;27;89130;-66
2022/01/04 10:27:30;;;;;;;4.10;3.70;;;22.40;75.90;;;;;;6285924;27;90050;-66
2022/01/04 10:30:39;;;;;;;4.10;3.70;;;22.30;75.90;;;;;;6301183;27;87967;-66
2022/01/04 10:33:41;;;;;;;3.70;3.30;;;22.40;75.80;;;;;;6294372;27;89081;-66
2022/01/04 10:36:44;;;;;;;3.90;3.50;;;22.40;75.80;;;;;;6281284;27;88182;-66
2022/01/04 10:40:04;;;;;;;3.85;3.45;;;22.40;75.90;;;;;;6279850;27;89066;-66
2022/01/04 10:43:11;;;;;;;3.90;3.42;;;22.40;75.90;;;;;;6293236;27;89077;-66
2022/01/04 10:46:18;;;;;;;4.70;3.50;;;22.40;75.90;;;;;;6280344;27;89151;-67
2022/01/04 10:49:22;;;;;;;3.63;3.30;;;22.40;75.90;;;;;;6294035;27;87991;-66
2022/01/04 10:52:32;;;;;;;3.88;3.47;;;22.40;75.90;;;;;;6293851;27;89020;-67
2022/01/04 10:55:36;;;;;;;3.50;3.20;;;22.40;75.90;;;;;;6291932;27;88881;-66
2022/01/04 10:58:40;;;;;;;5.35;3.45;;;22.40;75.90;;;;;;6291900;27;89910;-66
2022/01/04 11:01:45;;;;;;;3.67;3.30;;;22.40;75.90;;;;;;6304723;27;89067;-66
2022/01/04 11:05:11;;;;;;;3.70;3.40;;;22.40;75.90;;;;;;6305490;27;89149;-66
2022/01/04 11:08:17;;;;;;;3.95;3.33;;;22.40;76.00;;;;;;6291019;27;89103;-67
2022/01/04 11:11:19;;;;;;;3.70;3.38;;;22.40;75.90;;;;;;6291522;27;90360;-66
2022/01/04 11:14:23;;;;;;;3.30;3.00;;;22.40;75.90;;;;;;6295414;27;89048;-66
2022/01/04 11:17:26;;;;;;;3.83;3.42;;;22.40;75.90;;;;;;6301726;27;88988;-66
2022/01/04 11:20:28;;;;;;;4.10;3.30;;;22.40;76.90;;;;;;6296954;27;88362;-66
2022/01/04 11:23:32;;;;;;;3.38;3.00;;;22.40;75.90;;;;;;6282590;27;89326;-67
2022/01/04 11:26:34;;;;;;;4.80;3.30;;;22.40;75.90;;;;;;6285290;27;89350;-66
2022/01/04 11:29:43;;;;;;;3.30;3.00;;;22.40;75.90;;;;;;6294105;27;90016;-66
2022/01/04 11:32:53;;;;;;;3.30;2.85;;;22.40;75.90;;;;;;6285561;27;89208;-66
2022/01/04 11:35:56;;;;;;;2.97;2.67;;;22.40;75.90;;;;;;6297606;27;89054;-66
2022/01/04 11:38:58;;;;;;;3.35;3.05;;;22.40;76.00;;;;;;6299629;27;89125;-66
2022/01/04 11:42:03;;;;;;;3.78;3.22;;;22.50;76.10;;;;;;6303145;27;89140;-66
2022/01/04 11:45:08;;;;;;;3.75;3.08;;;22.50;76.10;;;;;;6303623;27;89047;-67
2022/01/04 11:48:32;;;;;;;2.97;2.67;;;22.40;76.00;;;;;;6297493;27;88043;-67
2022/01/04 11:51:40;;;;;;;3.20;2.80;;;22.40;76.00;;;;;;6288226;27;88338;-66
2022/01/04 11:54:42;;;;;;;3.58;2.72;;;22.50;76.10;;;;;;6289474;27;87993;-66
2022/01/04 11:57:44;;;;;;;3.30;3.00;;;22.50;76.10;;;;;;6311226;27;89061;-67
2022/01/04 12:00:58;;;;;;;3.30;3.00;;;22.50;76.10;;;;;;6290938;27;88885;-66
2022/01/04 12:04:01;;;;;;;3.33;3.03;;;22.50;76.10;;;;;;6297653;27;89154;-66
2022/01/04 12:07:03;;;;;;;3.03;2.72;;;22.50;76.10;;;;;;6298795;27;89144;-66
2022/01/04 12:10:47;;;;;;;3.38;2.92;;;22.40;75.90;;;;;;6296759;27;89109;-66
2022/01/04 12:13:52;;;;;;;3.10;2.80;;;22.50;76.10;;;;;;6288214;27;87428;-66
2022/01/04 12:17:02;;;;;;;3.28;2.55;;;22.50;76.10;;;;;;6292310;27;88006;-66
2022/01/04 12:20:06;;;;;;;3.75;2.85;;;22.50;76.00;;;;;;6301543;27;87992;-67
2022/01/04 12:23:44;;;;;;;2.80;2.50;;;22.50;76.00;;;;;;6298954;27;88329;-67
2022/01/04 12:26:46;;;;;;;3.03;2.72;;;22.50;76.00;;;;;;6284170;27;89078;-67
2022/01/04 12:29:48;;;;;;;2.75;2.50;;;22.50;76.10;;;;;;6309236;27;89135;-66
2022/01/04 12:32:51;;;;;;;3.03;2.65;;;22.50;76.00;;;;;;6285301;27;89988;-67
2022/01/04 12:35:54;;;;;;;2.92;2.60;;;22.50;76.00;;;;;;6281206;27;89062;-66
2022/01/04 12:38:58;;;;;;;2.70;2.50;;;22.50;76.00;;;;;;6297550;27;89036;-67
2022/01/04 12:42:00;;;;;;;3.05;2.75;;;22.50;76.00;;;;;;6283096;27;89423;-66
2022/01/04 12:45:03;;;;;;;2.60;2.38;;;22.50;76.10;;;;;;6284166;27;89082;-66
2022/01/04 12:48:05;;;;;;;2.92;2.63;;;22.50;76.10;;;;;;6284116;27;89033;-66
2022/01/04 12:54:39;;;;;;;3.00;2.70;;;22.50;76.10;;;;;;6246787;28;80314;-65
2022/01/04 12:57:41;;;;;;;2.50;2.30;;;22.50;76.10;;;;;;6230206;27;81185;-67
2022/01/04 13:00:51;;;;;;;2.95;2.47;;;22.50;76.00;;;;;;6241632;28;82288;-66
2022/01/04 13:03:53;;;;;;;2.53;2.33;;;22.60;76.00;;;;;;6241729;27;82359;-67
2022/01/04 13:06:56;;;;;;;2.50;2.30;;;22.50;75.90;;;;;;6245038;28;82373;-67
2022/01/04 13:10:03;;;;;;;2.50;2.30;;;22.60;76.00;;;;;;6231782;28;82566;-67
2022/01/04 13:13:05;;;;;;;2.60;2.40;;;22.60;75.90;;;;;;6205842;28;82291;-67
2022/01/04 13:16:20;;;;;;;3.13;2.38;;;22.60;75.90;;;;;;6243498;28;82367;-67
2022/01/04 13:19:22;;;;;;;2.53;2.33;;;22.50;75.90;;;;;;6223040;28;82376;-67
2022/01/04 13:22:26;;;;;;;2.45;2.25;;;22.50;75.90;;;;;;6221172;28;82748;-67
2022/01/04 13:25:30;;;;;;;2.75;2.55;;;22.60;76.00;;;;;;6249893;27;81220;-68
2022/01/04 13:28:33;;;;;;;2.60;2.40;;;22.60;76.00;;;;;;6232206;28;82508;-67
2022/01/04 13:31:35;;;;;;;2.70;2.20;;;22.50;75.90;;;;;;6231725;28;81219;-67
2022/01/04 13:34:37;;;;;;;2.60;2.40;;;22.60;76.00;;;;;;6228257;28;82375;-67
2022/01/04 13:37:40;;;;;;;2.70;2.40;;;22.50;76.00;;;;;;6219637;28;81217;-68
2022/01/04 13:40:45;;;;;;;2.45;2.25;;;22.60;76.00;;;;;;6238776;28;82236;-67
2022/01/04 13:43:47;;;;;;;2.30;2.10;;;22.60;76.10;;;;;;6234973;27;82602;-67
2022/01/04 13:46:49;;;;;;;2.60;2.30;;;22.60;76.10;;;;;;6238714;28;82413;-67
2022/01/04 13:49:51;;;;;;;2.60;2.30;;;22.60;76.10;;;;;;6251986;27;82416;-67
2022/01/04 13:53:19;;;;;;;2.58;2.17;;;22.60;76.10;;;;;;6228237;27;81209;-68
2022/01/04 13:56:23;;;;;;;3.65;2.40;;;22.60;76.10;;;;;;6240906;27;82424;-68
2022/01/04 13:59:25;;;;;;;2.53;2.00;;;22.60;76.10;;;;;;6242042;28;82345;-68
2022/01/04 14:02:30;;;;;;;2.40;2.20;;;22.60;76.00;;;;;;6237855;27;82612;-67
2022/01/04 14:05:36;;;;;;;2.63;2.30;;;22.60;76.00;;;;;;6229503;28;82424;-67
2022/01/04 14:08:48;;;;;;;2.30;2.10;;;22.60;76.00;;;;;;6210949;28;82316;-68
2022/01/04 14:11:53;;;;;;;2.40;2.20;;;22.60;76.00;;;;;;6189121;28;81212;-68
2022/01/04 14:14:57;;;;;;;2.28;2.08;;;22.60;76.00;;;;;;6191035;28;82307;-68
2022/01/04 14:18:10;;;;;;;2.53;2.20;;;22.60;76.00;;;;;;6212163;28;82351;-67
2022/01/04 14:21:12;;;;;;;2.75;2.15;;;22.60;76.10;;;;;;6223841;28;82598;-68
2022/01/04 14:24:39;;;;;;;2.38;2.10;;;22.60;76.00;;;;;;6223878;28;82405;-67
2022/01/04 14:27:43;;;;;;;3.28;2.60;;;22.60;76.00;;;;;;6215808;28;82366;-67
2022/01/04 14:30:45;;;;;;;4.03;2.42;;;22.60;76.10;;;;;;6200422;28;82326;-67
2022/01/04 14:33:47;;;;;;;3.70;2.67;;;22.60;76.10;;;;;;6221776;28;82393;-68
2022/01/04 14:36:49;;;;;;;5.05;2.85;;;22.60;76.10;;;;;;6215518;28;81246;-67
2022/01/04 14:39:53;;;;;;;4.78;3.00;;;22.60;76.20;;;;;;6200644;28;82614;-68
2022/01/04 14:42:57;;;;;;;5.32;3.20;;;22.60;76.20;;;;;;6224884;28;82433;-67
2022/01/04 14:45:59;;;;;;;5.60;3.50;;;22.60;76.10;;;;;;6213350;28;81060;-68
2022/01/04 14:49:01;;;;;;;5.43;3.30;;;22.60;76.20;;;;;;6223104;28;81222;-66
2022/01/04 14:52:06;;;;;;;6.10;3.65;;;22.60;76.10;;;;;;6210587;28;82362;-67
2022/01/04 14:55:09;;;;;;;7.20;3.33;;;22.60;76.10;;;;;;6238232;28;82387;-67
2022/01/04 14:58:13;;;;;;;5.47;3.40;;;22.60;76.20;;;;;;6203092;28;82306;-68
2022/01/04 15:01:15;;;;;;;6.80;3.70;;;22.60;76.10;;;;;;6219726;28;81294;-66
2022/01/04 15:04:17;;;;;;;7.35;3.75;;;22.60;76.10;;;;;;6192675;28;82785;-68
2022/01/04 15:07:19;;;;;;;6.68;4.28;;;22.60;76.10;;;;;;6230593;28;82434;-67
2022/01/04 15:10:21;;;;;;;8.10;4.45;;;22.60;76.10;;;;;;6221399;28;82309;-67
2022/01/04 15:13:24;;;;;;;8.23;4.15;;;22.60;76.10;;;;;;6211572;28;82366;-67
2022/01/04 15:16:27;;;;;;;7.93;4.47;;;22.60;76.20;;;;;;6210599;28;82434;-67
2022/01/04 15:19:29;;;;;;;8.18;4.35;;;22.60;76.10;;;;;;6202803;28;82525;-67
2022/01/04 15:22:35;;;;;;;9.20;4.65;;;22.60;76.20;;;;;;6218225;28;81405;-67
2022/01/04 15:25:38;;;;;;;10.10;4.80;;;22.60;76.20;;;;;;6232765;28;82695;-67
2022/01/04 15:28:41;;;;;;;9.65;4.70;;;22.60;76.10;;;;;;6211135;28;82306;-67
2022/01/04 15:31:43;;;;;;;9.10;4.70;;;22.60;76.10;;;;;;6213024;28;82215;-67
2022/01/04 15:34:45;;;;;;;10.10;5.20;;;22.60;76.10;;;;;;6187291;28;82340;-67
2022/01/04 15:37:47;;;;;;;9.25;5.35;;;22.60;76.10;;;;;;6209810;28;82411;-67
2022/01/04 15:40:49;;;;;;;8.43;4.97;;;22.60;76.10;;;;;;6212227;28;81229;-68
2022/01/04 15:43:53;;;;;;;10.10;5.30;;;22.60;76.20;;;;;;6225323;28;82729;-67
2022/01/04 15:46:55;;;;;;;10.52;5.53;;;22.60;76.20;;;;;;6211175;28;82385;-67
2022/01/04 15:49:57;;;;;;;10.27;5.40;;;22.60;76.20;;;;;;6216845;28;82317;-67
2022/01/04 15:52:59;;;;;;;10.82;5.35;;;22.60;76.20;;;;;;6227853;28;82179;-67
2022/01/04 15:56:01;;;;;;;10.93;5.80;;;22.60;76.20;;;;;;6212999;28;82554;-68
2022/01/04 15:59:04;;;;;;;10.20;5.50;;;22.60;76.10;;;;;;6191029;28;82076;-67
2022/01/04 16:02:07;;;;;;;11.20;5.53;;;22.70;76.20;;;;;;6197235;28;82438;-67
2022/01/04 16:05:10;;;;;;;13.73;6.00;;;22.60;76.20;;;;;;6187556;28;82233;-68